createdAt,value
2018-05-26T00:02:49.385Z,102223.56
2018-05-26T00:05:52.706Z,102231.05
2018-05-26T00:08:56.793Z,102243.25
2018-05-26T00:12:00.122Z,102252.42
2018-05-26T00:15:04.198Z,102250.67
2018-05-26T00:18:07.518Z,102254.88
2018-05-26T00:21:10.849Z,102257.83
2018-05-26T00:24:14.165Z,102261.34
2018-05-26T00:27:17.467Z,102263.98
2018-05-26T00:30:20.773Z,102264.42
2018-05-26T00:33:24.096Z,102256.99
2018-05-26T00:36:27.409Z,102256.91
2018-05-26T00:39:31.502Z,102258.41
2018-05-26T00:42:34.833Z,102258.08
2018-05-26T00:45:38.901Z,102254.30
2018-05-26T00:48:42.216Z,102244.61
2018-05-26T00:51:45.530Z,102243.76
2018-05-26T00:54:49.618Z,102247.98
2018-05-26T00:57:52.929Z,102247.34
2018-05-26T01:00:56.265Z,102249.34
2018-05-26T01:03:59.604Z,102246.50
2018-05-26T01:07:02.914Z,102247.47
2018-05-26T01:10:06.233Z,102250.81
2018-05-26T01:13:09.553Z,102253.13
2018-05-26T01:16:12.878Z,102255.55
2018-05-26T01:19:16.176Z,102249.86
2018-05-26T01:22:19.493Z,102253.22
2018-05-26T01:25:22.810Z,102256.57
2018-05-26T01:28:26.894Z,102250.06
2018-05-26T01:31:30.197Z,102251.97
2018-05-26T01:34:33.518Z,102249.44
2018-05-26T01:37:37.585Z,102249.84
2018-05-26T01:40:40.906Z,102240.91
2018-05-26T01:43:44.209Z,102244.88
2018-05-26T01:46:47.541Z,102242.34
2018-05-26T01:49:50.845Z,102243.91
2018-05-26T01:52:54.178Z,102240.31
2018-05-26T01:55:57.489Z,102240.50
2018-05-26T01:59:00.823Z,102238.98
2018-05-26T02:02:04.126Z,102236.63
2018-05-26T02:05:07.458Z,102239.64
2018-05-26T02:08:10.762Z,102236.91
2018-05-26T02:11:14.078Z,102238.70
2018-05-26T02:14:17.393Z,102237.27
2018-05-26T02:17:20.743Z,102229.51
2018-05-26T02:20:24.058Z,102234.88
2018-05-26T02:23:27.401Z,102235.77
2018-05-26T02:26:30.709Z,102235.16
2018-05-26T02:29:34.054Z,102236.73
2018-05-26T02:32:37.363Z,102226.41
2018-05-26T02:35:40.707Z,102231.45
2018-05-26T02:38:44.018Z,102227.13
2018-05-26T02:41:47.340Z,102227.52
2018-05-26T02:44:50.653Z,102230.65
2018-05-26T02:47:53.993Z,102234.01
2018-05-26T02:50:57.301Z,102231.57
2018-05-26T02:54:00.625Z,102234.72
2018-05-26T02:57:03.941Z,102228.73
2018-05-26T03:00:07.265Z,102228.17
2018-05-26T03:03:10.610Z,102223.48
2018-05-26T03:06:19.419Z,102228.80
2018-05-26T03:09:28.188Z,102224.20
2018-05-26T03:12:37.865Z,102224.52
2018-05-26T03:15:41.177Z,102230.41
2018-05-26T03:18:44.493Z,102228.64
2018-05-26T03:21:47.800Z,102229.91
2018-05-26T03:24:51.148Z,102232.52
2018-05-26T03:27:54.453Z,102236.39
2018-05-26T03:30:57.793Z,102233.05
2018-05-26T03:34:01.097Z,102235.42
2018-05-26T03:37:04.418Z,102241.70
2018-05-26T03:40:08.498Z,102234.55
2018-05-26T03:43:11.817Z,102237.61
2018-05-26T03:46:15.881Z,102236.23
2018-05-26T03:49:19.193Z,102236.02
2018-05-26T03:52:22.500Z,102238.14
2018-05-26T03:55:44.501Z,102239.83
2018-05-26T03:59:05.582Z,102239.77
2018-05-26T04:02:09.667Z,102244.86
2018-05-26T04:05:12.964Z,102241.75
2018-05-26T04:08:16.301Z,102246.89
2018-05-26T04:11:20.433Z,102247.23
2018-05-26T04:14:23.746Z,102255.53
2018-05-26T04:17:27.053Z,102261.24
2018-05-26T04:20:30.373Z,102250.11
2018-05-26T04:23:33.677Z,102252.45
2018-05-26T04:26:36.995Z,102254.69
2018-05-26T04:29:40.302Z,102253.94
2018-05-26T04:32:43.630Z,102255.85
2018-05-26T04:35:46.933Z,102249.46
2018-05-26T04:38:50.344Z,102260.28
2018-05-26T04:41:53.654Z,102259.22
2018-05-26T04:44:56.977Z,102252.61
2018-05-26T04:48:00.286Z,102253.98
2018-05-26T04:51:03.728Z,102253.45
2018-05-26T04:54:07.045Z,102251.31
2018-05-26T04:57:10.358Z,102249.00
2018-05-26T05:00:14.430Z,102255.70
2018-05-26T05:03:17.749Z,102257.14
2018-05-26T05:06:21.070Z,102262.88
2018-05-26T05:09:25.142Z,102260.52
2018-05-26T05:12:28.465Z,102257.63
2018-05-26T05:15:31.782Z,102265.16
2018-05-26T05:18:35.097Z,102269.75
2018-05-26T05:21:38.402Z,102266.56
2018-05-26T05:24:41.718Z,102266.59
2018-05-26T05:27:45.030Z,102270.72
2018-05-26T05:30:48.349Z,102270.21
2018-05-26T05:33:51.653Z,102268.45
2018-05-26T05:36:55.741Z,102268.80
2018-05-26T05:39:59.057Z,102269.74
2018-05-26T05:43:03.141Z,102272.28
2018-05-26T05:46:06.465Z,102269.42
2018-05-26T05:49:10.532Z,102273.85
2018-05-26T05:52:13.848Z,102270.09
2018-05-26T05:55:17.202Z,102277.68
2018-05-26T05:58:20.504Z,102271.98
2018-05-26T06:01:23.813Z,102273.22
2018-05-26T06:04:27.130Z,102277.23
2018-05-26T06:07:30.450Z,102277.17
2018-05-26T06:10:33.760Z,102270.44
2018-05-26T06:13:37.847Z,102271.15
2018-05-26T06:16:41.158Z,102274.16
2018-05-26T06:19:44.483Z,102274.49
2018-05-26T06:22:47.825Z,102269.38
2018-05-26T06:25:51.134Z,102269.67
2018-05-26T06:28:54.453Z,102273.84
2018-05-26T06:31:58.541Z,102281.39
2018-05-26T06:35:01.841Z,102276.10
2018-05-26T06:38:05.174Z,102276.89
2018-05-26T06:41:09.262Z,102277.83
2018-05-26T06:44:12.575Z,102275.80
2018-05-26T06:47:16.675Z,102278.66
2018-05-26T06:50:19.989Z,102276.11
2018-05-26T06:53:23.325Z,102275.01
2018-05-26T06:56:26.644Z,102274.23
2018-05-26T06:59:29.958Z,102278.63
2018-05-26T07:02:33.282Z,102276.86
2018-05-26T07:05:36.608Z,102279.38
2018-05-26T07:08:39.937Z,102284.75
2018-05-26T07:11:43.257Z,102283.30
2018-05-26T07:14:47.339Z,102279.64
2018-05-26T07:17:50.674Z,102278.91
2018-05-26T07:20:53.982Z,102278.45
2018-05-26T07:23:57.310Z,102278.17
2018-05-26T07:27:00.614Z,102276.26
2018-05-26T07:30:03.929Z,102279.92
2018-05-26T07:33:07.240Z,102273.02
2018-05-26T07:36:10.569Z,102275.28
2018-05-26T07:39:13.886Z,102268.02
2018-05-26T07:42:17.197Z,102275.85
2018-05-26T07:45:20.509Z,102277.16
2018-05-26T07:48:23.838Z,102282.48
2018-05-26T07:51:27.914Z,102286.52
2018-05-26T07:54:31.233Z,102281.22
2018-05-26T07:57:34.560Z,102284.58
2018-05-26T08:00:37.885Z,102283.75
2018-05-26T08:03:41.185Z,102281.15
2018-05-26T08:06:44.508Z,102297.63
2018-05-26T08:09:47.822Z,102301.23
2018-05-26T08:12:51.143Z,102294.29
2018-05-26T08:15:54.452Z,102292.52
2018-05-26T08:18:57.779Z,102303.11
2018-05-26T08:22:01.101Z,102307.84
2018-05-26T08:25:04.422Z,102302.03
2018-05-26T08:28:07.859Z,102300.00
2018-05-26T08:31:11.170Z,102300.27
2018-05-26T08:34:14.495Z,102301.73
2018-05-26T08:37:17.806Z,102298.27
2018-05-26T08:40:21.890Z,102301.77
2018-05-26T08:43:25.198Z,102295.68
2018-05-26T08:46:28.500Z,102296.38
2018-05-26T08:49:31.801Z,102300.69
2018-05-26T08:52:35.109Z,102307.62
2018-05-26T08:55:39.178Z,102302.77
2018-05-26T08:58:42.497Z,102305.59
2018-05-26T09:01:45.807Z,102314.67
2018-05-26T09:04:49.130Z,102315.86
2018-05-26T09:07:52.442Z,102304.55
2018-05-26T09:10:55.751Z,102302.11
2018-05-26T09:13:59.082Z,102299.90
2018-05-26T09:17:02.383Z,102304.68
2018-05-26T09:20:05.702Z,102301.09
2018-05-26T09:23:09.028Z,102302.62
2018-05-26T09:26:12.372Z,102298.89
2018-05-26T09:29:15.696Z,102298.88
2018-05-26T09:32:19.029Z,102301.13
2018-05-26T09:35:22.337Z,102305.72
2018-05-26T09:38:25.654Z,102293.20
2018-05-26T09:41:28.958Z,102295.17
2018-05-26T09:44:32.298Z,102292.41
2018-05-26T09:47:35.614Z,102288.80
2018-05-26T09:50:38.947Z,102292.44
2018-05-26T09:53:42.266Z,102294.13
2018-05-26T09:56:46.364Z,102297.03
2018-05-26T09:59:49.675Z,102288.28
2018-05-26T10:02:53.761Z,102293.70
2018-05-26T10:05:57.094Z,102302.20
2018-05-26T10:09:00.413Z,102294.81
2018-05-26T10:12:03.717Z,102288.30
2018-05-26T10:15:07.035Z,102290.93
2018-05-26T10:18:10.347Z,102292.98
2018-05-26T10:21:13.670Z,102284.79
2018-05-26T10:24:16.978Z,102286.73
2018-05-26T10:27:20.297Z,102284.68
2018-05-26T10:30:23.605Z,102293.17
2018-05-26T10:33:26.963Z,102288.59
2018-05-26T10:36:30.270Z,102302.74
2018-05-26T10:39:33.595Z,102284.27
2018-05-26T10:42:36.930Z,102278.86
2018-05-26T10:45:40.237Z,102293.14
2018-05-26T10:48:44.330Z,102291.91
2018-05-26T10:51:47.633Z,102290.93
2018-05-26T10:54:50.940Z,102288.55
2018-05-26T10:57:54.245Z,102294.37
2018-05-26T11:00:58.326Z,102293.95
2018-05-26T11:04:01.663Z,102294.24
2018-05-26T11:07:04.968Z,102292.13
2018-05-26T11:10:08.319Z,102290.02
2018-05-26T11:13:11.625Z,102286.73
2018-05-26T11:16:15.045Z,102300.61
2018-05-26T11:19:18.279Z,102295.19
2018-05-26T11:22:21.586Z,102288.22
2018-05-26T11:25:24.907Z,102291.41
2018-05-26T11:28:28.237Z,102299.06
2018-05-26T11:31:31.578Z,102298.08
2018-05-26T11:34:34.970Z,102298.94
2018-05-26T11:37:38.294Z,102294.33
2018-05-26T11:40:41.635Z,102292.47
2018-05-26T11:43:44.945Z,102287.56
2018-05-26T11:46:48.269Z,102288.48
2018-05-26T11:49:51.616Z,102289.14
2018-05-26T11:52:54.931Z,102286.09
2018-05-26T11:55:58.267Z,102281.42
2018-05-26T11:59:01.578Z,102280.31
2018-05-26T12:02:04.925Z,102280.78
2018-05-26T12:05:08.219Z,102280.73
2018-05-26T12:08:11.558Z,102284.44
2018-05-26T12:11:14.889Z,102280.03
2018-05-26T12:14:18.216Z,102281.81
2018-05-26T12:17:21.542Z,102285.38
2018-05-26T12:20:24.867Z,102284.63
2018-05-26T12:23:28.952Z,102291.77
2018-05-26T12:26:32.290Z,102290.76
2018-05-26T12:29:35.610Z,102289.62
2018-05-26T12:32:38.930Z,102281.03
2018-05-26T12:35:42.229Z,102282.30
2018-05-26T12:38:45.549Z,102283.41
2018-05-26T12:41:48.870Z,102284.21
2018-05-26T12:44:52.952Z,102288.27
2018-05-26T12:47:56.269Z,102281.78
2018-05-26T12:51:00.365Z,102287.69
2018-05-26T12:54:03.695Z,102287.81
2018-05-26T12:57:07.108Z,102288.98
2018-05-26T13:00:10.433Z,102284.37
2018-05-26T13:03:13.757Z,102295.52
2018-05-26T13:06:17.073Z,102284.80
2018-05-26T13:09:21.170Z,102282.06
2018-05-26T13:12:24.472Z,102279.62
2018-05-26T13:15:27.805Z,102287.61
2018-05-26T13:18:31.104Z,102282.16
2018-05-26T13:21:34.438Z,102277.81
2018-05-26T13:24:37.754Z,102274.98
2018-05-26T13:27:41.065Z,102276.55
2018-05-26T13:30:45.137Z,102277.61
2018-05-26T13:33:48.469Z,102268.23
2018-05-26T13:36:51.783Z,102272.75
2018-05-26T13:39:55.114Z,102274.73
2018-05-26T13:42:58.435Z,102276.63
2018-05-26T13:46:01.764Z,102268.62
2018-05-26T13:49:05.090Z,102270.81
2018-05-26T13:52:08.451Z,102269.04
2018-05-26T13:55:11.782Z,102264.86
2018-05-26T13:58:15.865Z,102267.52
2018-05-26T14:01:19.165Z,102272.24
2018-05-26T14:04:23.281Z,102261.16
2018-05-26T14:07:27.359Z,102255.39
2018-05-26T14:10:30.712Z,102254.70
2018-05-26T14:13:34.024Z,102257.88
2018-05-26T14:16:37.407Z,102252.84
2018-05-26T14:19:40.694Z,102249.02
2018-05-26T14:22:44.037Z,102245.22
2018-05-26T14:25:47.353Z,102247.33
2018-05-26T14:28:50.677Z,102250.73
2018-05-26T14:31:54.001Z,102247.22
2018-05-26T14:34:57.340Z,102255.09
2018-05-26T14:38:00.664Z,102247.93
2018-05-26T14:41:04.757Z,102247.04
2018-05-26T14:44:08.108Z,102237.98
2018-05-26T14:47:11.417Z,102242.95
2018-05-26T14:50:14.735Z,102244.46
2018-05-26T14:53:18.054Z,102238.61
2018-05-26T14:56:21.393Z,102237.83
2018-05-26T14:59:24.706Z,102227.77
2018-05-26T15:02:28.014Z,102229.75
2018-05-26T15:05:31.309Z,102228.59
2018-05-26T15:08:34.642Z,102234.05
2018-05-26T15:11:37.955Z,102224.38
2018-05-26T15:14:42.038Z,102231.05
2018-05-26T15:17:45.342Z,102222.47
2018-05-26T15:20:48.652Z,102221.10
2018-05-26T15:23:52.749Z,102218.62
2018-05-26T15:26:56.040Z,102217.24
2018-05-26T15:29:59.361Z,102216.11
2018-05-26T15:33:03.441Z,102219.87
2018-05-26T15:36:06.762Z,102223.44
2018-05-26T15:39:10.070Z,102224.47
2018-05-26T15:42:14.146Z,102219.12
2018-05-26T15:45:17.473Z,102219.56
2018-05-26T15:48:20.782Z,102229.22
2018-05-26T15:51:24.899Z,102223.69
2018-05-26T15:54:28.207Z,102228.34
2018-05-26T15:57:31.527Z,102223.48
2018-05-26T16:00:34.881Z,102216.37
2018-05-26T16:03:38.186Z,102225.13
2018-05-26T16:06:42.276Z,102225.84
2018-05-26T16:09:45.582Z,102224.42
2018-05-26T16:12:49.656Z,102226.59
2018-05-26T16:15:52.974Z,102240.20
2018-05-26T16:18:56.288Z,102234.63
2018-05-26T16:21:59.619Z,102235.19
2018-05-26T16:25:02.930Z,102235.48
2018-05-26T16:28:06.271Z,102237.78
2018-05-26T16:31:09.578Z,102234.75
2018-05-26T16:34:12.913Z,102230.58
2018-05-26T16:37:16.221Z,102230.72
2018-05-26T16:40:19.543Z,102236.45
2018-05-26T16:43:22.845Z,102234.99
2018-05-26T16:46:26.170Z,102244.66
2018-05-26T16:49:29.471Z,102236.55
2018-05-26T16:52:33.549Z,102237.20
2018-05-26T16:55:36.866Z,102239.66
2018-05-26T16:58:40.178Z,102245.22
2018-05-26T17:01:44.269Z,102239.83
2018-05-26T17:04:47.590Z,102244.77
2018-05-26T17:07:50.910Z,102244.64
2018-05-26T17:10:54.226Z,102239.68
2018-05-26T17:13:57.537Z,102238.41
2018-05-26T17:17:00.857Z,102237.59
2018-05-26T17:20:04.174Z,102238.21
2018-05-26T17:23:07.506Z,102238.53
2018-05-26T17:26:10.809Z,102235.75
2018-05-26T17:29:14.131Z,102236.03
2018-05-26T17:32:17.433Z,102236.75
2018-05-26T17:35:20.748Z,102225.39
2018-05-26T17:38:24.818Z,102230.84
2018-05-26T17:41:28.142Z,102223.19
2018-05-26T17:44:31.450Z,102232.63
2018-05-26T17:47:35.535Z,102226.53
2018-05-26T17:50:38.850Z,102226.55
2018-05-26T17:53:42.171Z,102223.36
2018-05-26T17:56:46.251Z,102226.81
2018-05-26T17:59:49.583Z,102222.25
2018-05-26T18:02:53.652Z,102221.95
2018-05-26T18:05:56.981Z,102227.70
2018-05-26T18:09:00.328Z,102230.48
2018-05-26T18:12:03.652Z,102236.31
2018-05-26T18:15:07.016Z,102233.13
2018-05-26T18:18:10.362Z,102231.33
2018-05-26T18:21:13.679Z,102234.67
2018-05-26T18:24:17.803Z,102239.27
2018-05-26T18:27:21.101Z,102246.63
2018-05-26T18:30:24.429Z,102251.02
2018-05-26T18:33:27.759Z,102257.55
2018-05-26T18:36:31.065Z,102262.42
2018-05-26T18:39:34.389Z,102252.12
2018-05-26T18:42:37.705Z,102252.52
2018-05-26T18:45:41.806Z,102253.77
2018-05-26T18:48:45.163Z,102256.67
2018-05-26T18:51:48.449Z,102251.66
2018-05-26T18:54:51.758Z,102244.02
2018-05-26T18:57:55.080Z,102247.73
2018-05-26T19:00:59.157Z,102251.06
2018-05-26T19:04:02.561Z,102250.78
2018-05-26T19:07:05.871Z,102264.74
2018-05-26T19:10:09.950Z,102266.80
2018-05-26T19:13:13.257Z,102262.19
2018-05-26T19:16:16.573Z,102272.86
2018-05-26T19:19:20.670Z,102278.80
2018-05-26T19:22:23.979Z,102281.16
2018-05-26T19:25:27.296Z,102272.77
2018-05-26T19:28:31.379Z,102274.63
2018-05-26T19:31:34.701Z,102277.40
2018-05-26T19:34:38.805Z,102280.94
2018-05-26T19:37:42.100Z,102278.28
2018-05-26T19:40:45.450Z,102280.94
2018-05-26T19:43:48.763Z,102284.34
2018-05-26T19:46:52.078Z,102277.06
2018-05-26T19:49:55.401Z,102283.08
2018-05-26T19:52:59.485Z,102289.37
2018-05-26T19:56:02.805Z,102292.23
2018-05-26T19:59:06.877Z,102292.55
2018-05-26T20:02:10.202Z,102289.30
2018-05-26T20:05:13.510Z,102292.31
2018-05-26T20:08:16.821Z,102293.00
2018-05-26T20:11:20.129Z,102291.13
2018-05-26T20:14:23.425Z,102300.55
2018-05-26T20:17:26.733Z,102297.45
2018-05-26T20:20:30.047Z,102299.31
2018-05-26T20:23:33.374Z,102299.02
2018-05-26T20:26:36.678Z,102296.46
2018-05-26T20:29:39.989Z,102301.13
2018-05-26T20:32:44.070Z,102303.45
2018-05-26T20:35:47.385Z,102298.98
2018-05-26T20:38:50.702Z,102296.30
2018-05-26T20:41:54.920Z,102288.89
2018-05-26T20:44:58.997Z,102286.63
2018-05-26T20:48:02.305Z,102287.23
2018-05-26T20:51:05.623Z,102284.38
2018-05-26T20:54:09.715Z,102283.81
2018-05-26T20:57:13.023Z,102282.98
2018-05-26T21:00:16.342Z,102285.50
2018-05-26T21:03:20.429Z,102290.84
2018-05-26T21:06:23.729Z,102288.84
2018-05-26T21:09:27.065Z,102289.09
2018-05-26T21:12:30.366Z,102284.51
2018-05-26T21:15:33.672Z,102277.55
2018-05-26T21:18:36.970Z,102284.27
2018-05-26T21:21:41.084Z,102284.27
2018-05-26T21:24:44.390Z,102280.65
2018-05-26T21:27:47.747Z,102278.28
2018-05-26T21:30:51.808Z,102277.69
2018-05-26T21:33:55.125Z,102282.28
2018-05-26T21:36:58.430Z,102278.38
2018-05-26T21:40:01.758Z,102285.08
2018-05-26T21:43:05.070Z,102288.47
2018-05-26T21:46:08.393Z,102284.47
2018-05-26T21:49:11.722Z,102288.70
2018-05-26T21:52:15.806Z,102291.80
2018-05-26T21:55:19.125Z,102296.87
2018-05-26T21:58:22.453Z,102289.98
2018-05-26T22:01:25.752Z,102282.80
2018-05-26T22:04:29.072Z,102280.87
2018-05-26T22:07:32.386Z,102284.20
2018-05-26T22:10:35.722Z,102287.11
2018-05-26T22:13:39.815Z,102296.03
2018-05-26T22:16:43.145Z,102294.84
2018-05-26T22:19:46.486Z,102305.12
2018-05-26T22:22:49.790Z,102309.36
2018-05-26T22:25:53.120Z,102307.01
2018-05-26T22:28:57.199Z,102306.05
2018-05-26T22:32:00.518Z,102303.22
2018-05-26T22:35:03.827Z,102304.92
2018-05-26T22:38:07.905Z,102304.55
2018-05-26T22:41:11.206Z,102294.39
2018-05-26T22:44:14.550Z,102296.95
2018-05-26T22:47:18.623Z,102298.33
2018-05-26T22:50:21.942Z,102301.30
2018-05-26T22:53:25.245Z,102295.11
2018-05-26T22:56:29.346Z,102296.23
2018-05-26T22:59:32.657Z,102297.55
2018-05-26T23:02:36.738Z,102296.55
2018-05-26T23:05:40.086Z,102301.64
2018-05-26T23:08:43.402Z,102309.92
2018-05-26T23:11:46.713Z,102305.73
2018-05-26T23:14:50.019Z,102297.78
2018-05-26T23:17:53.341Z,102290.64
2018-05-26T23:20:56.654Z,102288.70
2018-05-26T23:23:59.971Z,102282.08
2018-05-26T23:27:03.294Z,102291.55
2018-05-26T23:30:06.602Z,102286.99
2018-05-26T23:33:09.961Z,102291.89
2018-05-26T23:36:13.278Z,102289.66
2018-05-26T23:39:16.597Z,102294.39
2018-05-26T23:42:19.909Z,102286.86
2018-05-26T23:45:23.225Z,102287.81
2018-05-26T23:48:26.538Z,102291.44
2018-05-26T23:51:29.881Z,102285.38
2018-05-26T23:54:33.187Z,102291.26
2018-05-26T23:57:36.502Z,102296.03
